sensor_id;sensor_type;location;lat;lon;timestamp;pressure;altitude;pressure_sealevel;temperature;humidity
20062;BME280;10191;42.710;23.310;2022-08-06T00:02:01;94806.50;;;29.00;27.86
20062;BME280;10191;42.710;23.310;2022-08-06T00:04:27;94812.22;;;29.00;27.76
20062;BME280;10191;42.710;23.310;2022-08-06T00:06:53;94806.78;;;28.91;28.01
20062;BME280;10191;42.710;23.310;2022-08-06T00:09:18;94803.69;;;28.83;28.23
20062;BME280;10191;42.710;23.310;2022-08-06T00:11:44;94821.63;;;28.84;27.97
20062;BME280;10191;42.710;23.310;2022-08-06T00:14:10;94809.69;;;28.80;28.38
20062;BME280;10191;42.710;23.310;2022-08-06T00:16:36;94810.72;;;28.88;28.01
20062;BME280;10191;42.710;23.310;2022-08-06T00:19:01;94817.22;;;28.83;28.15
20062;BME280;10191;42.710;23.310;2022-08-06T00:21:26;94820.09;;;28.77;28.42
20062;BME280;10191;42.710;23.310;2022-08-06T00:23:52;94825.81;;;28.72;28.34
20062;BME280;10191;42.710;23.310;2022-08-06T00:26:18;94820.09;;;28.66;28.10
20062;BME280;10191;42.710;23.310;2022-08-06T00:28:43;94821.66;;;28.56;28.34
20062;BME280;10191;42.710;23.310;2022-08-06T00:31:09;94830.22;;;28.56;28.44
20062;BME280;10191;42.710;23.310;2022-08-06T00:33:35;94824.25;;;28.54;28.58
20062;BME280;10191;42.710;23.310;2022-08-06T00:36:01;94829.97;;;28.54;28.61
20062;BME280;10191;42.710;23.310;2022-08-06T00:38:26;94829.97;;;28.48;28.27
20062;BME280;10191;42.710;23.310;2022-08-06T00:40:52;94828.41;;;28.42;28.48
20062;BME280;10191;42.710;23.310;2022-08-06T00:43:18;94834.13;;;28.36;28.41
20062;BME280;10191;42.710;23.310;2022-08-06T00:45:44;94830.50;;;28.30;28.75
20062;BME280;10191;42.710;23.310;2022-08-06T00:48:10;94829.47;;;28.22;28.63
20062;BME280;10191;42.710;23.310;2022-08-06T00:50:35;94826.88;;;28.19;28.91
20062;BME280;10191;42.710;23.310;2022-08-06T00:53:02;94832.84;;;28.15;28.89
20062;BME280;10191;42.710;23.310;2022-08-06T00:55:28;94826.34;;;28.09;28.65
20062;BME280;10191;42.710;23.310;2022-08-06T00:57:54;94823.22;;;28.02;28.84
20062;BME280;10191;42.710;23.310;2022-08-06T01:00:19;94826.59;;;28.00;29.11
20062;BME280;10191;42.710;23.310;2022-08-06T01:02:45;94833.09;;;28.01;29.14
20062;BME280;10191;42.710;23.310;2022-08-06T01:05:10;94825.00;;;27.94;29.17
20062;BME280;10191;42.710;23.310;2022-08-06T01:07:36;94834.38;;;28.00;28.85
20062;BME280;10191;42.710;23.310;2022-08-06T01:10:02;94826.34;;;27.98;28.99
20062;BME280;10191;42.710;23.310;2022-08-06T01:12:27;94812.81;;;27.88;29.01
20062;BME280;10191;42.710;23.310;2022-08-06T01:14:53;94830.50;;;27.97;28.99
20062;BME280;10191;42.710;23.310;2022-08-06T01:20:10;94822.69;;;27.92;29.23
20062;BME280;10191;42.710;23.310;2022-08-06T01:22:59;94825.53;;;27.92;29.05
20062;BME280;10191;42.710;23.310;2022-08-06T01:31:08;94821.13;;;27.80;29.36
20062;BME280;10191;42.710;23.310;2022-08-06T01:33:41;94821.63;;;27.73;29.46
20062;BME280;10191;42.710;23.310;2022-08-06T01:36:14;94819.81;;;27.75;29.25
20062;BME280;10191;42.710;23.310;2022-08-06T01:38:45;94815.38;;;27.69;29.46
20062;BME280;10191;42.710;23.310;2022-08-06T01:41:14;94809.66;;;27.63;29.44
20062;BME280;10191;42.710;23.310;2022-08-06T01:44:05;94819.00;;;27.64;29.35
20062;BME280;10191;42.710;23.310;2022-08-06T01:46:33;94811.75;;;27.63;29.43
20062;BME280;10191;42.710;23.310;2022-08-06T01:49:00;94797.94;;;27.45;29.85
20062;BME280;10191;42.710;23.310;2022-08-06T01:51:27;94814.56;;;27.57;29.69
20062;BME280;10191;42.710;23.310;2022-08-06T01:53:53;94805.47;;;27.48;29.63
20062;BME280;10191;42.710;23.310;2022-08-06T01:56:20;94809.88;;;27.43;29.62
20062;BME280;10191;42.710;23.310;2022-08-06T01:58:49;94813.75;;;27.40;29.70
20062;BME280;10191;42.710;23.310;2022-08-06T02:01:18;94802.28;;;27.29;29.66
20062;BME280;10191;42.710;23.310;2022-08-06T02:03:46;94800.94;;;27.19;29.96
20062;BME280;10191;42.710;23.310;2022-08-06T02:06:15;94795.47;;;27.10;30.01
20062;BME280;10191;42.710;23.310;2022-08-06T02:08:43;94804.25;;;27.01;30.00
20062;BME280;10191;42.710;23.310;2022-08-06T02:11:10;94805.25;;;26.92;30.17
20062;BME280;10191;42.710;23.310;2022-08-06T02:13:36;94805.19;;;26.81;30.32
20062;BME280;10191;42.710;23.310;2022-08-06T02:16:05;94802.75;;;26.69;30.32
20062;BME280;10191;42.710;23.310;2022-08-06T02:18:35;94800.13;;;26.60;30.19
20062;BME280;10191;42.710;23.310;2022-08-06T02:21:06;94798.50;;;26.53;30.44
20062;BME280;10191;42.710;23.310;2022-08-06T02:23:33;94787.63;;;26.46;30.57
20062;BME280;10191;42.710;23.310;2022-08-06T02:26:00;94799.31;;;26.54;30.43
20062;BME280;10191;42.710;23.310;2022-08-06T02:28:27;94792.88;;;26.59;30.47
20062;BME280;10191;42.710;23.310;2022-08-06T02:30:57;94795.75;;;26.64;30.42
20062;BME280;10191;42.710;23.310;2022-08-06T02:33:24;94791.38;;;26.69;30.26
20062;BME280;10191;42.710;23.310;2022-08-06T02:35:54;94791.38;;;26.69;30.44
20062;BME280;10191;42.710;23.310;2022-08-06T02:38:28;94797.41;;;26.76;30.65
20062;BME280;10191;42.710;23.310;2022-08-06T02:41:00;94797.44;;;26.87;30.54
20062;BME280;10191;42.710;23.310;2022-08-06T02:43:39;94796.44;;;26.90;30.54
20062;BME280;10191;42.710;23.310;2022-08-06T02:46:23;94801.06;;;26.88;30.46
20062;BME280;10191;42.710;23.310;2022-08-06T02:49:00;94794.56;;;26.82;30.44
20062;BME280;10191;42.710;23.310;2022-08-06T02:51:38;94796.34;;;26.74;30.56
20062;BME280;10191;42.710;23.310;2022-08-06T02:54:12;94797.34;;;26.71;30.51
20062;BME280;10191;42.710;23.310;2022-08-06T02:56:42;94796.84;;;26.72;30.72
20062;BME280;10191;42.710;23.310;2022-08-06T02:59:10;94797.06;;;26.69;30.82
20062;BME280;10191;42.710;23.310;2022-08-06T03:01:45;94796.63;;;26.81;30.67
20062;BME280;10191;42.710;23.310;2022-08-06T03:04:15;94802.34;;;26.81;30.85
20062;BME280;10191;42.710;23.310;2022-08-06T03:06:42;94810.41;;;26.88;30.86
20062;BME280;10191;42.710;23.310;2022-08-06T03:09:08;94802.06;;;26.74;30.70
20062;BME280;10191;42.710;23.310;2022-08-06T03:11:35;94807.94;;;26.70;30.73
20062;BME280;10191;42.710;23.310;2022-08-06T03:14:03;94814.44;;;26.71;30.86
20062;BME280;10191;42.710;23.310;2022-08-06T03:16:35;94803.53;;;26.69;30.88
20062;BME280;10191;42.710;23.310;2022-08-06T03:19:02;94811.66;;;26.76;31.04
20062;BME280;10191;42.710;23.310;2022-08-06T03:21:28;94815.50;;;26.73;30.78
20062;BME280;10191;42.710;23.310;2022-08-06T03:23:56;94814.69;;;26.67;31.05
20062;BME280;10191;42.710;23.310;2022-08-06T03:26:25;94800.13;;;26.60;31.11
20062;BME280;10191;42.710;23.310;2022-08-06T03:28:53;94806.91;;;26.68;31.06
20062;BME280;10191;42.710;23.310;2022-08-06T03:31:20;94807.94;;;26.70;30.99
20062;BME280;10191;42.710;23.310;2022-08-06T03:33:46;94801.22;;;26.68;31.00
20062;BME280;10191;42.710;23.310;2022-08-06T03:36:13;94814.44;;;26.71;31.14
20062;BME280;10191;42.710;23.310;2022-08-06T03:38:43;94805.66;;;26.74;31.07
20062;BME280;10191;42.710;23.310;2022-08-06T03:41:11;94801.75;;;26.72;31.20
20062;BME280;10191;42.710;23.310;2022-08-06T03:43:38;94804.38;;;26.75;30.98
20062;BME280;10191;42.710;23.310;2022-08-06T03:46:05;94813.72;;;26.76;30.97
20062;BME280;10191;42.710;23.310;2022-08-06T03:48:34;94808.25;;;26.72;30.82
20062;BME280;10191;42.710;23.310;2022-08-06T03:51:03;94813.78;;;26.87;31.21
20062;BME280;10191;42.710;23.310;2022-08-06T03:53:31;94805.00;;;26.96;31.32
20062;BME280;10191;42.710;23.310;2022-08-06T03:56:00;94819.84;;;27.11;31.33
20062;BME280;10191;42.710;23.310;2022-08-06T03:58:28;94811.84;;;27.21;31.17
20062;BME280;10191;42.710;23.310;2022-08-06T04:00:59;94811.34;;;27.28;30.98
20062;BME280;10191;42.710;23.310;2022-08-06T04:03:25;94810.41;;;27.42;31.26
20062;BME280;10191;42.710;23.310;2022-08-06T04:05:51;94818.72;;;27.62;31.28
20062;BME280;10191;42.710;23.310;2022-08-06T04:08:18;94827.84;;;27.82;31.34
20062;BME280;10191;42.710;23.310;2022-08-06T04:10:47;94820.63;;;28.04;31.48
20062;BME280;10191;42.710;23.310;2022-08-06T04:13:17;94826.63;;;28.22;31.44
20062;BME280;10191;42.710;23.310;2022-08-06T04:15:43;94830.78;;;28.43;31.38
20062;BME280;10191;42.710;23.310;2022-08-06T04:18:14;94841.69;;;28.67;31.25
20062;BME280;10191;42.710;23.310;2022-08-06T04:20:42;94832.00;;;28.92;31.16
20062;BME280;10191;42.710;23.310;2022-08-06T04:23:09;94826.25;;;29.09;30.87
20062;BME280;10191;42.710;23.310;2022-08-06T04:25:39;94832.66;;;29.37;31.21
20062;BME280;10191;42.710;23.310;2022-08-06T04:28:06;94833.09;;;29.58;30.97
20062;BME280;10191;42.710;23.310;2022-08-06T04:30:33;94846.53;;;29.79;30.76
20062;BME280;10191;42.710;23.310;2022-08-06T04:33:02;94837.09;;;29.90;30.71
20062;BME280;10191;42.710;23.310;2022-08-06T04:35:29;94848.13;;;30.10;30.64
20062;BME280;10191;42.710;23.310;2022-08-06T04:37:55;94840.44;;;30.29;30.45
20062;BME280;10191;42.710;23.310;2022-08-06T04:40:23;94841.66;;;30.45;30.51
20062;BME280;10191;42.710;23.310;2022-08-06T04:42:50;94846.69;;;30.63;30.27
20062;BME280;10191;42.710;23.310;2022-08-06T04:45:16;94863.50;;;30.77;30.32
20062;BME280;10191;42.710;23.310;2022-08-06T04:47:43;94860.00;;;30.90;30.38
20062;BME280;10191;42.710;23.310;2022-08-06T04:50:10;94857.28;;;31.03;29.93
20062;BME280;10191;42.710;23.310;2022-08-06T04:52:36;94864.97;;;31.14;30.19
20062;BME280;10191;42.710;23.310;2022-08-06T04:55:02;94863.00;;;31.27;29.98
20062;BME280;10191;42.710;23.310;2022-08-06T04:57:28;94863.16;;;31.40;29.86
20062;BME280;10191;42.710;23.310;2022-08-06T04:59:53;94856.09;;;31.41;29.84
20062;BME280;10191;42.710;23.310;2022-08-06T05:02:20;94864.25;;;31.99;28.87
20062;BME280;10191;42.710;23.310;2022-08-06T05:04:45;94864.44;;;32.38;28.38
20062;BME280;10191;42.710;23.310;2022-08-06T05:07:23;94866.75;;;32.58;28.30
20062;BME280;10191;42.710;23.310;2022-08-06T05:09:51;94867.44;;;32.64;28.18
20062;BME280;10191;42.710;23.310;2022-08-06T05:12:32;94866.56;;;32.69;27.91
20062;BME280;10191;42.710;23.310;2022-08-06T05:15:26;94864.47;;;32.70;27.86
20062;BME280;10191;42.710;23.310;2022-08-06T05:17:57;94868.09;;;32.70;27.62
20062;BME280;10191;42.710;23.310;2022-08-06T05:20:24;94857.34;;;32.58;27.82
20062;BME280;10191;42.710;23.310;2022-08-06T05:22:55;94864.22;;;31.80;28.92
20062;BME280;10191;42.710;23.310;2022-08-06T05:25:22;94870.16;;;31.39;29.50
20062;BME280;10191;42.710;23.310;2022-08-06T05:27:48;94869.13;;;31.18;29.92
20062;BME280;10191;42.710;23.310;2022-08-06T05:30:13;94865.53;;;31.12;29.97
20062;BME280;10191;42.710;23.310;2022-08-06T05:32:44;94876.63;;;30.97;30.43
20062;BME280;10191;42.710;23.310;2022-08-06T05:35:09;94874.22;;;30.77;30.48
20062;BME280;10191;42.710;23.310;2022-08-06T05:37:35;94858.25;;;30.52;30.34
20062;BME280;10191;42.710;23.310;2022-08-06T05:40:02;94870.09;;;30.37;30.61
20062;BME280;10191;42.710;23.310;2022-08-06T05:42:27;94862.94;;;30.20;30.65
20062;BME280;10191;42.710;23.310;2022-08-06T05:44:53;94870.25;;;30.15;30.43
20062;BME280;10191;42.710;23.310;2022-08-06T05:47:21;94866.16;;;30.05;30.48
20062;BME280;10191;42.710;23.310;2022-08-06T05:49:59;94872.94;;;30.02;30.59
20062;BME280;10191;42.710;23.310;2022-08-06T05:52:36;94877.19;;;29.84;30.74
20062;BME280;10191;42.710;23.310;2022-08-06T05:55:30;94864.47;;;29.80;30.44
20062;BME280;10191;42.710;23.310;2022-08-06T05:57:59;94859.28;;;29.78;30.77
20062;BME280;10191;42.710;23.310;2022-08-06T06:00:28;94862.63;;;29.82;30.66
20062;BME280;10191;42.710;23.310;2022-08-06T06:02:58;94865.50;;;29.82;30.54
20062;BME280;10191;42.710;23.310;2022-08-06T06:05:25;94858.44;;;29.89;30.66
20062;BME280;10191;42.710;23.310;2022-08-06T06:07:51;94859.16;;;29.95;30.71
20062;BME280;10191;42.710;23.310;2022-08-06T06:10:18;94851.06;;;30.04;30.43
20062;BME280;10191;42.710;23.310;2022-08-06T06:12:44;94856.19;;;30.12;30.81
20062;BME280;10191;42.710;23.310;2022-08-06T06:15:12;94850.38;;;30.23;30.56
20062;BME280;10191;42.710;23.310;2022-08-06T06:18:01;94856.84;;;30.29;30.75
20062;BME280;10191;42.710;23.310;2022-08-06T06:20:58;94850.81;;;30.38;30.54
20062;BME280;10191;42.710;23.310;2022-08-06T06:23:44;94844.56;;;30.39;30.43
20062;BME280;10191;42.710;23.310;2022-08-06T06:29:08;94859.44;;;30.67;30.40
20062;BME280;10191;42.710;23.310;2022-08-06T06:34:17;94850.94;;;31.34;30.22
20062;BME280;10191;42.710;23.310;2022-08-06T06:37:09;94850.53;;;31.86;30.05
20062;BME280;10191;42.710;23.310;2022-08-06T06:39:47;94840.66;;;32.38;29.84
20062;BME280;10191;42.710;23.310;2022-08-06T06:42:25;94843.19;;;32.91;30.13
20062;BME280;10191;42.710;23.310;2022-08-06T06:45:18;94839.81;;;33.58;29.81
20062;BME280;10191;42.710;23.310;2022-08-06T06:47:54;94839.53;;;34.09;29.58
20062;BME280;10191;42.710;23.310;2022-08-06T06:50:29;94823.94;;;34.59;29.09
20062;BME280;10191;42.710;23.310;2022-08-06T06:52:55;94836.09;;;35.26;28.98
20062;BME280;10191;42.710;23.310;2022-08-06T06:55:31;94838.22;;;35.54;28.69
20062;BME280;10191;42.710;23.310;2022-08-06T06:58:07;94839.91;;;35.85;28.60
20062;BME280;10191;42.710;23.310;2022-08-06T07:00:34;94830.19;;;36.69;27.49
20062;BME280;10191;42.710;23.310;2022-08-06T07:03:02;94839.81;;;36.57;27.99
20062;BME280;10191;42.710;23.310;2022-08-06T07:05:30;94841.56;;;36.67;27.91
20062;BME280;10191;42.710;23.310;2022-08-06T07:07:59;94846.59;;;36.82;27.81
20062;BME280;10191;42.710;23.310;2022-08-06T07:10:25;94837.75;;;36.88;27.76
20062;BME280;10191;42.710;23.310;2022-08-06T07:12:53;94824.22;;;36.67;27.65
20062;BME280;10191;42.710;23.310;2022-08-06T07:15:21;94835.22;;;36.76;27.80
20062;BME280;10191;42.710;23.310;2022-08-06T07:17:48;94825.63;;;37.04;27.87
20062;BME280;10191;42.710;23.310;2022-08-06T07:20:21;94826.94;;;37.33;27.58
20062;BME280;10191;42.710;23.310;2022-08-06T07:22:47;94822.34;;;37.38;27.46
20062;BME280;10191;42.710;23.310;2022-08-06T07:25:14;94824.25;;;37.50;27.10
20062;BME280;10191;42.710;23.310;2022-08-06T07:27:49;94821.50;;;37.68;27.17
20062;BME280;10191;42.710;23.310;2022-08-06T07:30:16;94815.09;;;37.77;26.98
20062;BME280;10191;42.710;23.310;2022-08-06T07:32:43;94825.50;;;37.95;27.17
20062;BME280;10191;42.710;23.310;2022-08-06T07:35:10;94819.88;;;37.97;27.47
20062;BME280;10191;42.710;23.310;2022-08-06T07:37:38;94810.53;;;37.43;27.79
20062;BME280;10191;42.710;23.310;2022-08-06T07:40:12;94812.81;;;36.69;28.11
20062;BME280;10191;42.710;23.310;2022-08-06T07:42:41;94809.75;;;36.60;28.56
20062;BME280;10191;42.710;23.310;2022-08-06T07:45:08;94800.94;;;36.88;28.25
20062;BME280;10191;42.710;23.310;2022-08-06T07:47:39;94807.25;;;37.24;28.15
20062;BME280;10191;42.710;23.310;2022-08-06T07:50:06;94793.75;;;37.49;27.93
20062;BME280;10191;42.710;23.310;2022-08-06T07:52:35;94802.41;;;38.12;27.39
20062;BME280;10191;42.710;23.310;2022-08-06T07:55:01;94810.28;;;38.66;27.47
20062;BME280;10191;42.710;23.310;2022-08-06T07:57:28;94810.19;;;39.06;27.28
20062;BME280;10191;42.710;23.310;2022-08-06T07:59:55;94808.06;;;39.48;26.67
20062;BME280;10191;42.710;23.310;2022-08-06T08:02:21;94804.88;;;39.61;26.97
20062;BME280;10191;42.710;23.310;2022-08-06T08:04:47;94801.03;;;39.76;26.51
20062;BME280;10191;42.710;23.310;2022-08-06T08:07:31;94808.16;;;40.00;26.46
20062;BME280;10191;42.710;23.310;2022-08-06T08:09:58;94800.56;;;40.31;25.88
20062;BME280;10191;42.710;23.310;2022-08-06T08:12:25;94802.00;;;40.66;25.56
20062;BME280;10191;42.710;23.310;2022-08-06T08:14:52;94813.13;;;40.77;26.04
20062;BME280;10191;42.710;23.310;2022-08-06T08:17:18;94815.22;;;40.94;25.75
20062;BME280;10191;42.710;23.310;2022-08-06T08:19:44;94796.34;;;40.68;25.79
20062;BME280;10191;42.710;23.310;2022-08-06T08:22:12;94802.34;;;40.70;25.54
20062;BME280;10191;42.710;23.310;2022-08-06T08:24:39;94810.72;;;40.57;25.61
20062;BME280;10191;42.710;23.310;2022-08-06T08:27:06;94808.06;;;40.51;25.38
20062;BME280;10191;42.710;23.310;2022-08-06T08:29:35;94807.16;;;40.48;25.81
20062;BME280;10191;42.710;23.310;2022-08-06T08:32:01;94804.81;;;40.47;25.84
20062;BME280;10191;42.710;23.310;2022-08-06T08:34:28;94804.00;;;40.64;25.98
20062;BME280;10191;42.710;23.310;2022-08-06T08:36:53;94807.56;;;40.98;25.88
20062;BME280;10191;42.710;23.310;2022-08-06T08:39:19;94799.50;;;41.16;25.72
20062;BME280;10191;42.710;23.310;2022-08-06T08:42:04;94808.31;;;41.26;25.69
20062;BME280;10191;42.710;23.310;2022-08-06T08:44:34;94808.50;;;41.37;25.52
20062;BME280;10191;42.710;23.310;2022-08-06T08:47:03;94805.00;;;41.58;25.45
20062;BME280;10191;42.710;23.310;2022-08-06T08:51:58;94795.41;;;42.32;24.82
20062;BME280;10191;42.710;23.310;2022-08-06T08:54:26;94794.06;;;42.14;24.89
20062;BME280;10191;42.710;23.310;2022-08-06T08:56:54;94806.25;;;41.55;25.02
20062;BME280;10191;42.710;23.310;2022-08-06T08:59:21;94800.78;;;40.86;25.11
20062;BME280;10191;42.710;23.310;2022-08-06T09:01:47;94797.88;;;40.42;25.17
20062;BME280;10191;42.710;23.310;2022-08-06T09:04:13;94802.25;;;40.78;25.01
20062;BME280;10191;42.710;23.310;2022-08-06T09:06:39;94794.88;;;40.50;24.63
20062;BME280;10191;42.710;23.310;2022-08-06T09:09:05;94795.22;;;40.37;24.72
20062;BME280;10191;42.710;23.310;2022-08-06T09:11:32;94792.09;;;40.25;24.84
20062;BME280;10191;42.710;23.310;2022-08-06T09:14:03;94788.53;;;40.61;24.55
20062;BME280;10191;42.710;23.310;2022-08-06T09:16:31;94783.16;;;41.30;24.21
20062;BME280;10191;42.710;23.310;2022-08-06T09:18:57;94782.44;;;41.58;23.89
20062;BME280;10191;42.710;23.310;2022-08-06T09:21:23;94783.81;;;41.57;23.63
20062;BME280;10191;42.710;23.310;2022-08-06T09:23:49;94788.81;;;40.92;23.53
20062;BME280;10191;42.710;23.310;2022-08-06T09:26:14;94784.00;;;41.04;23.73
20062;BME280;10191;42.710;23.310;2022-08-06T09:28:41;94783.94;;;41.40;23.58
20062;BME280;10191;42.710;23.310;2022-08-06T09:31:08;94782.72;;;41.34;23.49
20062;BME280;10191;42.710;23.310;2022-08-06T09:33:38;94779.31;;;42.12;22.25
20062;BME280;10191;42.710;23.310;2022-08-06T09:36:05;94773.53;;;42.61;21.57
20062;BME280;10191;42.710;23.310;2022-08-06T09:38:31;94783.22;;;43.44;21.26
20062;BME280;10191;42.710;23.310;2022-08-06T09:41:06;94783.75;;;43.62;20.80
20062;BME280;10191;42.710;23.310;2022-08-06T09:43:33;94778.56;;;43.82;20.67
20062;BME280;10191;42.710;23.310;2022-08-06T09:45:58;94784.94;;;43.07;20.84
20062;BME280;10191;42.710;23.310;2022-08-06T09:48:23;94783.72;;;42.41;20.95
20062;BME280;10191;42.710;23.310;2022-08-06T09:50:49;94776.06;;;42.46;20.88
20062;BME280;10191;42.710;23.310;2022-08-06T09:53:14;94776.34;;;42.50;21.15
20062;BME280;10191;42.710;23.310;2022-08-06T09:55:41;94768.53;;;41.95;21.09
20062;BME280;10191;42.710;23.310;2022-08-06T09:58:06;94767.75;;;41.85;21.15
20062;BME280;10191;42.710;23.310;2022-08-06T10:00:33;94769.75;;;41.73;21.21
20062;BME280;10191;42.710;23.310;2022-08-06T10:03:03;94760.38;;;41.65;21.08
20062;BME280;10191;42.710;23.310;2022-08-06T10:05:30;94748.78;;;40.56;22.15
20062;BME280;10191;42.710;23.310;2022-08-06T10:10:46;94751.88;;;41.59;22.59
20062;BME280;10191;42.710;23.310;2022-08-06T10:15:42;94744.41;;;42.33;22.27
20062;BME280;10191;42.710;23.310;2022-08-06T10:18:10;94758.81;;;42.50;22.29
20062;BME280;10191;42.710;23.310;2022-08-06T10:20:36;94753.34;;;42.06;22.63
20062;BME280;10191;42.710;23.310;2022-08-06T10:23:01;94754.38;;;41.72;22.74
20062;BME280;10191;42.710;23.310;2022-08-06T10:25:27;94754.56;;;41.19;22.77
20062;BME280;10191;42.710;23.310;2022-08-06T10:27:55;94750.78;;;40.90;22.65
20062;BME280;10191;42.710;23.310;2022-08-06T10:30:21;94750.50;;;40.59;22.66
20062;BME280;10191;42.710;23.310;2022-08-06T10:32:51;94759.38;;;40.34;22.81
20062;BME280;10191;42.710;23.310;2022-08-06T10:35:20;94746.03;;;40.58;22.76
20062;BME280;10191;42.710;23.310;2022-08-06T10:37:51;94744.84;;;40.97;22.76
20062;BME280;10191;42.710;23.310;2022-08-06T10:40:19;94747.66;;;41.14;22.58
20062;BME280;10191;42.710;23.310;2022-08-06T10:42:46;94745.28;;;40.94;22.55
20062;BME280;10191;42.710;23.310;2022-08-06T10:45:11;94744.53;;;40.67;22.87
20062;BME280;10191;42.710;23.310;2022-08-06T10:47:39;94735.31;;;40.34;22.67
20062;BME280;10191;42.710;23.310;2022-08-06T10:50:06;94735.91;;;40.06;22.91
20062;BME280;10191;42.710;23.310;2022-08-06T10:52:34;94738.91;;;39.81;23.11
20062;BME280;10191;42.710;23.310;2022-08-06T10:55:00;94740.63;;;39.67;22.74
20062;BME280;10191;42.710;23.310;2022-08-06T10:57:26;94731.44;;;39.53;22.95
20062;BME280;10191;42.710;23.310;2022-08-06T10:59:52;94750.75;;;39.66;23.11
20062;BME280;10191;42.710;23.310;2022-08-06T11:05:06;94734.53;;;41.23;22.38
20062;BME280;10191;42.710;23.310;2022-08-06T11:15:52;94720.59;;;40.32;22.65
20062;BME280;10191;42.710;23.310;2022-08-06T11:18:18;94729.28;;;40.22;22.53
20062;BME280;10191;42.710;23.310;2022-08-06T11:20:48;94726.88;;;40.55;22.52
20062;BME280;10191;42.710;23.310;2022-08-06T11:25:42;94711.22;;;41.23;21.88
20062;BME280;10191;42.710;23.310;2022-08-06T11:34:01;94716.03;;;43.04;20.66
20062;BME280;10191;42.710;23.310;2022-08-06T11:36:07;94724.97;;;43.58;20.15
20062;BME280;10191;42.710;23.310;2022-08-06T11:41:22;94721.47;;;43.92;19.45
20062;BME280;10191;42.710;23.310;2022-08-06T11:46:27;94715.00;;;43.52;19.73
20062;BME280;10191;42.710;23.310;2022-08-06T11:59:38;94696.84;;;43.22;20.03
20062;BME280;10191;42.710;23.310;2022-08-06T12:02:06;94703.91;;;43.50;20.05
20062;BME280;10191;42.710;23.310;2022-08-06T12:07:20;94711.53;;;42.82;20.97
20062;BME280;10191;42.710;23.310;2022-08-06T12:12:40;94698.66;;;42.66;20.79
20062;BME280;10191;42.710;23.310;2022-08-06T12:23:06;94697.16;;;43.48;20.52
20062;BME280;10191;42.710;23.310;2022-08-06T12:25:34;94695.69;;;43.58;20.15
20062;BME280;10191;42.710;23.310;2022-08-06T12:30:42;94692.69;;;43.25;20.32
20062;BME280;10191;42.710;23.310;2022-08-06T12:33:09;94681.66;;;42.84;20.74
20062;BME280;10191;42.710;23.310;2022-08-06T12:35:36;94689.22;;;42.27;20.56
20062;BME280;10191;42.710;23.310;2022-08-06T12:38:01;94686.19;;;42.65;20.18
20062;BME280;10191;42.710;23.310;2022-08-06T12:40:27;94683.66;;;43.64;19.18
20062;BME280;10191;42.710;23.310;2022-08-06T12:42:54;94688.09;;;44.18;18.79
20062;BME280;10191;42.710;23.310;2022-08-06T12:45:24;94692.13;;;43.81;18.64
20062;BME280;10191;42.710;23.310;2022-08-06T12:48:00;94680.56;;;42.48;19.66
20062;BME280;10191;42.710;23.310;2022-08-06T12:50:26;94676.75;;;43.59;18.92
20062;BME280;10191;42.710;23.310;2022-08-06T12:53:36;94682.28;;;45.21;18.27
20062;BME280;10191;42.710;23.310;2022-08-06T12:55:50;94687.00;;;47.00;17.29
20062;BME280;10191;42.710;23.310;2022-08-06T12:58:17;94677.91;;;48.34;16.35
20062;BME280;10191;42.710;23.310;2022-08-06T13:00:50;94688.78;;;49.21;16.12
20062;BME280;10191;42.710;23.310;2022-08-06T13:03:18;94679.63;;;49.62;15.92
20062;BME280;10191;42.710;23.310;2022-08-06T13:05:45;94677.63;;;48.73;16.65
20062;BME280;10191;42.710;23.310;2022-08-06T13:08:12;94672.19;;;48.22;16.56
20062;BME280;10191;42.710;23.310;2022-08-06T13:10:38;94658.34;;;48.85;16.38
20062;BME280;10191;42.710;23.310;2022-08-06T13:13:06;94678.31;;;49.34;16.25
20062;BME280;10191;42.710;23.310;2022-08-06T13:15:33;94688.56;;;49.64;16.34
20062;BME280;10191;42.710;23.310;2022-08-06T13:18:06;94677.19;;;48.49;17.09
20062;BME280;10191;42.710;23.310;2022-08-06T13:20:36;94675.09;;;47.93;17.31
20062;BME280;10191;42.710;23.310;2022-08-06T13:23:02;94661.75;;;47.36;17.55
20062;BME280;10191;42.710;23.310;2022-08-06T13:25:28;94674.16;;;46.55;17.46
20062;BME280;10191;42.710;23.310;2022-08-06T13:28:13;94661.34;;;44.45;18.82
20062;BME280;10191;42.710;23.310;2022-08-06T13:30:44;94659.41;;;43.09;19.19
20062;BME280;10191;42.710;23.310;2022-08-06T13:35:38;94663.72;;;40.94;20.06
20062;BME280;10191;42.710;23.310;2022-08-06T13:38:04;94661.69;;;40.41;20.31
20062;BME280;10191;42.710;23.310;2022-08-06T13:40:45;94642.09;;;40.15;20.88
20062;BME280;10191;42.710;23.310;2022-08-06T13:43:12;94643.56;;;40.69;20.16
20062;BME280;10191;42.710;23.310;2022-08-06T13:45:38;94628.13;;;42.20;19.66
20062;BME280;10191;42.710;23.310;2022-08-06T13:48:05;94637.91;;;43.26;19.08
20062;BME280;10191;42.710;23.310;2022-08-06T13:50:39;94654.69;;;44.45;18.70
20062;BME280;10191;42.710;23.310;2022-08-06T13:53:06;94649.50;;;44.66;18.24
20062;BME280;10191;42.710;23.310;2022-08-06T13:55:34;94645.28;;;45.27;17.97
20062;BME280;10191;42.710;23.310;2022-08-06T13:58:00;94644.84;;;45.93;17.24
20062;BME280;10191;42.710;23.310;2022-08-06T14:00:26;94648.22;;;46.76;16.99
20062;BME280;10191;42.710;23.310;2022-08-06T14:02:52;94641.78;;;47.34;16.86
20062;BME280;10191;42.710;23.310;2022-08-06T14:05:18;94640.28;;;47.33;17.10
20062;BME280;10191;42.710;23.310;2022-08-06T14:07:43;94652.25;;;46.96;17.15
20062;BME280;10191;42.710;23.310;2022-08-06T14:10:09;94650.19;;;47.53;17.15
20062;BME280;10191;42.710;23.310;2022-08-06T14:12:36;94645.03;;;47.67;16.54
20062;BME280;10191;42.710;23.310;2022-08-06T14:15:02;94652.72;;;47.45;16.62